sensor_id;sensor_type;location;lat;lon;timestamp;temperature;humidity
28546;DHT22;15749;49.606;8.738;2022-11-13T00:01:07;13.60;85.40
28546;DHT22;15749;49.606;8.738;2022-11-13T00:04:15;13.60;85.80
28546;DHT22;15749;49.606;8.738;2022-11-13T00:07:21;13.60;85.40
28546;DHT22;15749;49.606;8.738;2022-11-13T00:10:30;13.60;85.30
28546;DHT22;15749;49.606;8.738;2022-11-13T00:13:36;13.60;85.40
28546;DHT22;15749;49.606;8.738;2022-11-13T00:16:43;13.60;85.40
28546;DHT22;15749;49.606;8.738;2022-11-13T00:19:50;13.50;85.30
28546;DHT22;15749;49.606;8.738;2022-11-13T00:22:57;13.50;85.40
28546;DHT22;15749;49.606;8.738;2022-11-13T00:26:06;13.50;85.30
28546;DHT22;15749;49.606;8.738;2022-11-13T00:29:14;13.50;85.20
28546;DHT22;15749;49.606;8.738;2022-11-13T00:32:21;13.50;85.10
28546;DHT22;15749;49.606;8.738;2022-11-13T00:35:27;13.50;85.10
28546;DHT22;15749;49.606;8.738;2022-11-13T00:38:34;13.40;85.20
28546;DHT22;15749;49.606;8.738;2022-11-13T00:41:42;13.40;85.20
28546;DHT22;15749;49.606;8.738;2022-11-13T00:44:49;13.40;85.30
28546;DHT22;15749;49.606;8.738;2022-11-13T00:47:55;13.40;85.20
28546;DHT22;15749;49.606;8.738;2022-11-13T00:51:02;13.40;85.10
28546;DHT22;15749;49.606;8.738;2022-11-13T00:54:08;13.40;85.10
28546;DHT22;15749;49.606;8.738;2022-11-13T00:57:17;13.40;85.10
28546;DHT22;15749;49.606;8.738;2022-11-13T01:00:23;13.30;85.20
28546;DHT22;15749;49.606;8.738;2022-11-13T01:03:30;13.30;85.00
28546;DHT22;15749;49.606;8.738;2022-11-13T01:06:37;13.30;84.90
28546;DHT22;15749;49.606;8.738;2022-11-13T01:09:48;13.30;85.00
28546;DHT22;15749;49.606;8.738;2022-11-13T01:12:56;13.30;85.00
28546;DHT22;15749;49.606;8.738;2022-11-13T01:16:05;13.20;84.70
28546;DHT22;15749;49.606;8.738;2022-11-13T01:19:13;13.20;84.90
28546;DHT22;15749;49.606;8.738;2022-11-13T01:22:19;13.20;84.80
28546;DHT22;15749;49.606;8.738;2022-11-13T01:25:26;13.20;84.90
28546;DHT22;15749;49.606;8.738;2022-11-13T01:28:35;13.20;84.90
28546;DHT22;15749;49.606;8.738;2022-11-13T01:31:41;13.20;84.70
28546;DHT22;15749;49.606;8.738;2022-11-13T01:34:47;13.10;84.70
28546;DHT22;15749;49.606;8.738;2022-11-13T01:37:54;13.10;84.90
28546;DHT22;15749;49.606;8.738;2022-11-13T01:41:01;13.10;84.90
28546;DHT22;15749;49.606;8.738;2022-11-13T01:44:13;13.10;84.90
28546;DHT22;15749;49.606;8.738;2022-11-13T01:47:21;13.10;84.60
28546;DHT22;15749;49.606;8.738;2022-11-13T01:50:29;13.00;84.60
28546;DHT22;15749;49.606;8.738;2022-11-13T01:53:36;13.00;84.70
28546;DHT22;15749;49.606;8.738;2022-11-13T01:56:42;13.00;84.70
28546;DHT22;15749;49.606;8.738;2022-11-13T01:59:54;13.00;84.60
28546;DHT22;15749;49.606;8.738;2022-11-13T02:03:03;13.00;84.60
28546;DHT22;15749;49.606;8.738;2022-11-13T02:06:10;13.00;84.60
28546;DHT22;15749;49.606;8.738;2022-11-13T02:09:19;12.90;84.30
28546;DHT22;15749;49.606;8.738;2022-11-13T02:12:29;12.90;84.50
28546;DHT22;15749;49.606;8.738;2022-11-13T02:15:40;12.90;84.60
28546;DHT22;15749;49.606;8.738;2022-11-13T02:18:48;12.90;84.70
28546;DHT22;15749;49.606;8.738;2022-11-13T02:21:58;12.90;84.60
28546;DHT22;15749;49.606;8.738;2022-11-13T02:25:11;12.90;84.70
28546;DHT22;15749;49.606;8.738;2022-11-13T02:28:18;12.90;84.70
28546;DHT22;15749;49.606;8.738;2022-11-13T02:31:24;12.80;84.30
28546;DHT22;15749;49.606;8.738;2022-11-13T02:34:30;12.80;84.20
28546;DHT22;15749;49.606;8.738;2022-11-13T02:37:36;12.80;84.30
28546;DHT22;15749;49.606;8.738;2022-11-13T02:40:44;12.80;84.60
28546;DHT22;15749;49.606;8.738;2022-11-13T02:43:50;12.80;84.60
28546;DHT22;15749;49.606;8.738;2022-11-13T02:46:56;12.80;84.40
28546;DHT22;15749;49.606;8.738;2022-11-13T02:50:04;12.70;84.50
28546;DHT22;15749;49.606;8.738;2022-11-13T02:53:11;12.70;84.70
28546;DHT22;15749;49.606;8.738;2022-11-13T02:56:19;12.70;84.60
28546;DHT22;15749;49.606;8.738;2022-11-13T02:59:26;12.70;84.50
28546;DHT22;15749;49.606;8.738;2022-11-13T03:02:32;12.70;84.30
28546;DHT22;15749;49.606;8.738;2022-11-13T03:05:38;12.70;84.10
28546;DHT22;15749;49.606;8.738;2022-11-13T03:08:45;12.60;83.90
28546;DHT22;15749;49.606;8.738;2022-11-13T03:11:53;12.60;84.00
28546;DHT22;15749;49.606;8.738;2022-11-13T03:14:59;12.60;84.40
28546;DHT22;15749;49.606;8.738;2022-11-13T03:18:06;12.60;84.50
28546;DHT22;15749;49.606;8.738;2022-11-13T03:21:13;12.60;84.50
28546;DHT22;15749;49.606;8.738;2022-11-13T03:24:20;12.60;84.60
28546;DHT22;15749;49.606;8.738;2022-11-13T03:27:29;12.60;84.60
28546;DHT22;15749;49.606;8.738;2022-11-13T03:30:36;12.50;84.60
28546;DHT22;15749;49.606;8.738;2022-11-13T03:33:43;12.50;84.20
28546;DHT22;15749;49.606;8.738;2022-11-13T03:36:49;12.50;84.00
28546;DHT22;15749;49.606;8.738;2022-11-13T03:39:55;12.50;84.10
28546;DHT22;15749;49.606;8.738;2022-11-13T03:43:03;12.50;84.10
28546;DHT22;15749;49.606;8.738;2022-11-13T03:46:09;12.40;84.20
28546;DHT22;15749;49.606;8.738;2022-11-13T03:49:16;12.40;84.40
28546;DHT22;15749;49.606;8.738;2022-11-13T03:52:22;12.40;84.30
28546;DHT22;15749;49.606;8.738;2022-11-13T03:55:28;12.30;84.10
28546;DHT22;15749;49.606;8.738;2022-11-13T03:58:36;12.30;84.00
28546;DHT22;15749;49.606;8.738;2022-11-13T04:01:44;12.30;84.10
28546;DHT22;15749;49.606;8.738;2022-11-13T04:04:50;12.30;84.20
28546;DHT22;15749;49.606;8.738;2022-11-13T04:07:56;12.30;84.20
28546;DHT22;15749;49.606;8.738;2022-11-13T04:11:07;12.20;83.70
28546;DHT22;15749;49.606;8.738;2022-11-13T04:14:15;12.20;83.80
28546;DHT22;15749;49.606;8.738;2022-11-13T04:17:21;12.20;83.60
28546;DHT22;15749;49.606;8.738;2022-11-13T04:20:27;12.10;83.60
28546;DHT22;15749;49.606;8.738;2022-11-13T04:23:34;12.10;83.50
28546;DHT22;15749;49.606;8.738;2022-11-13T04:26:40;12.10;83.70
28546;DHT22;15749;49.606;8.738;2022-11-13T04:29:48;12.00;83.90
28546;DHT22;15749;49.606;8.738;2022-11-13T04:32:54;12.00;84.10
28546;DHT22;15749;49.606;8.738;2022-11-13T04:36:00;12.00;84.10
28546;DHT22;15749;49.606;8.738;2022-11-13T04:39:07;12.00;84.20
28546;DHT22;15749;49.606;8.738;2022-11-13T04:42:14;12.00;84.20
28546;DHT22;15749;49.606;8.738;2022-11-13T04:45:39;11.90;84.00
28546;DHT22;15749;49.606;8.738;2022-11-13T04:48:45;11.90;83.70
28546;DHT22;15749;49.606;8.738;2022-11-13T04:51:51;11.90;83.70
28546;DHT22;15749;49.606;8.738;2022-11-13T04:54:58;11.90;83.80
28546;DHT22;15749;49.606;8.738;2022-11-13T04:58:05;11.80;83.90
28546;DHT22;15749;49.606;8.738;2022-11-13T05:01:12;11.80;84.10
28546;DHT22;15749;49.606;8.738;2022-11-13T05:04:19;11.80;84.30
28546;DHT22;15749;49.606;8.738;2022-11-13T05:07:26;11.70;84.10
28546;DHT22;15749;49.606;8.738;2022-11-13T05:10:33;11.70;84.10
28546;DHT22;15749;49.606;8.738;2022-11-13T05:13:39;11.70;84.00
28546;DHT22;15749;49.606;8.738;2022-11-13T05:16:47;11.70;84.10
28546;DHT22;15749;49.606;8.738;2022-11-13T05:19:53;11.70;84.10
28546;DHT22;15749;49.606;8.738;2022-11-13T05:23:00;11.70;84.00
28546;DHT22;15749;49.606;8.738;2022-11-13T05:26:08;11.60;84.10
28546;DHT22;15749;49.606;8.738;2022-11-13T05:29:16;11.60;84.20
28546;DHT22;15749;49.606;8.738;2022-11-13T05:32:23;11.60;84.20
28546;DHT22;15749;49.606;8.738;2022-11-13T05:35:29;11.60;83.80
28546;DHT22;15749;49.606;8.738;2022-11-13T05:38:37;11.50;83.60
28546;DHT22;15749;49.606;8.738;2022-11-13T05:41:43;11.50;83.60
28546;DHT22;15749;49.606;8.738;2022-11-13T05:44:50;11.50;83.90
28546;DHT22;15749;49.606;8.738;2022-11-13T05:47:57;11.40;83.70
28546;DHT22;15749;49.606;8.738;2022-11-13T05:51:06;11.40;84.00
28546;DHT22;15749;49.606;8.738;2022-11-13T05:54:14;11.40;84.10
28546;DHT22;15749;49.606;8.738;2022-11-13T05:57:20;11.40;83.80
28546;DHT22;15749;49.606;8.738;2022-11-13T06:00:26;11.40;83.70
28546;DHT22;15749;49.606;8.738;2022-11-13T06:03:34;11.30;83.50
28546;DHT22;15749;49.606;8.738;2022-11-13T06:06:41;11.30;83.50
28546;DHT22;15749;49.606;8.738;2022-11-13T06:09:47;11.30;83.20
28546;DHT22;15749;49.606;8.738;2022-11-13T06:12:53;11.30;83.20
28546;DHT22;15749;49.606;8.738;2022-11-13T06:16:01;11.30;83.20
28546;DHT22;15749;49.606;8.738;2022-11-13T06:19:10;11.30;82.90
28546;DHT22;15749;49.606;8.738;2022-11-13T06:22:16;11.20;82.90
28546;DHT22;15749;49.606;8.738;2022-11-13T06:25:22;11.20;82.60
28546;DHT22;15749;49.606;8.738;2022-11-13T06:28:29;11.20;82.10
28546;DHT22;15749;49.606;8.738;2022-11-13T06:31:36;11.20;82.40
28546;DHT22;15749;49.606;8.738;2022-11-13T06:34:43;11.10;82.60
28546;DHT22;15749;49.606;8.738;2022-11-13T06:37:50;11.10;82.00
28546;DHT22;15749;49.606;8.738;2022-11-13T06:40:56;11.10;82.00
28546;DHT22;15749;49.606;8.738;2022-11-13T06:44:03;11.10;82.30
28546;DHT22;15749;49.606;8.738;2022-11-13T06:47:09;11.00;82.50
28546;DHT22;15749;49.606;8.738;2022-11-13T06:50:17;11.00;82.80
28546;DHT22;15749;49.606;8.738;2022-11-13T06:53:23;11.00;82.90
28546;DHT22;15749;49.606;8.738;2022-11-13T06:56:29;11.00;82.70
28546;DHT22;15749;49.606;8.738;2022-11-13T06:59:36;11.00;82.90
28546;DHT22;15749;49.606;8.738;2022-11-13T07:02:43;10.90;82.90
28546;DHT22;15749;49.606;8.738;2022-11-13T07:05:35;10.90;82.80
28546;DHT22;15749;49.606;8.738;2022-11-13T07:08:22;10.90;82.60
28546;DHT22;15749;49.606;8.738;2022-11-13T07:11:12;10.90;82.70
28546;DHT22;15749;49.606;8.738;2022-11-13T07:14:00;10.90;82.60
28546;DHT22;15749;49.606;8.738;2022-11-13T07:16:48;10.90;82.80
28546;DHT22;15749;49.606;8.738;2022-11-13T07:19:53;10.80;82.90
28546;DHT22;15749;49.606;8.738;2022-11-13T07:22:43;10.90;83.00
28546;DHT22;15749;49.606;8.738;2022-11-13T07:25:31;10.80;82.90
28546;DHT22;15749;49.606;8.738;2022-11-13T07:28:18;10.80;83.10
28546;DHT22;15749;49.606;8.738;2022-11-13T07:31:06;10.90;83.20
28546;DHT22;15749;49.606;8.738;2022-11-13T07:33:53;10.80;83.20
28546;DHT22;15749;49.606;8.738;2022-11-13T07:36:40;10.80;83.10
28546;DHT22;15749;49.606;8.738;2022-11-13T07:39:29;10.80;83.10
28546;DHT22;15749;49.606;8.738;2022-11-13T07:42:17;10.80;83.40
28546;DHT22;15749;49.606;8.738;2022-11-13T07:45:05;10.80;83.70
28546;DHT22;15749;49.606;8.738;2022-11-13T07:47:56;10.80;83.90
28546;DHT22;15749;49.606;8.738;2022-11-13T07:50:45;10.90;84.40
28546;DHT22;15749;49.606;8.738;2022-11-13T07:53:32;10.90;84.70
28546;DHT22;15749;49.606;8.738;2022-11-13T07:56:22;10.90;85.10
28546;DHT22;15749;49.606;8.738;2022-11-13T07:59:10;11.00;85.70
28546;DHT22;15749;49.606;8.738;2022-11-13T08:01:57;11.00;86.10
28546;DHT22;15749;49.606;8.738;2022-11-13T08:04:45;11.10;86.50
28546;DHT22;15749;49.606;8.738;2022-11-13T08:07:32;11.20;86.80
28546;DHT22;15749;49.606;8.738;2022-11-13T08:10:20;11.30;87.10
28546;DHT22;15749;49.606;8.738;2022-11-13T08:13:09;11.40;87.40
28546;DHT22;15749;49.606;8.738;2022-11-13T08:15:58;11.50;87.60
28546;DHT22;15749;49.606;8.738;2022-11-13T08:18:45;11.60;87.70
28546;DHT22;15749;49.606;8.738;2022-11-13T08:21:34;11.70;87.90
28546;DHT22;15749;49.606;8.738;2022-11-13T08:24:21;11.80;88.10
28546;DHT22;15749;49.606;8.738;2022-11-13T08:27:09;11.90;88.10
28546;DHT22;15749;49.606;8.738;2022-11-13T08:29:58;12.10;88.00
28546;DHT22;15749;49.606;8.738;2022-11-13T08:32:47;12.20;88.00
28546;DHT22;15749;49.606;8.738;2022-11-13T08:35:34;12.30;87.90
28546;DHT22;15749;49.606;8.738;2022-11-13T08:38:22;12.40;88.10
28546;DHT22;15749;49.606;8.738;2022-11-13T08:41:10;12.50;88.00
28546;DHT22;15749;49.606;8.738;2022-11-13T08:43:58;12.70;88.00
28546;DHT22;15749;49.606;8.738;2022-11-13T08:46:47;12.80;87.90
28546;DHT22;15749;49.606;8.738;2022-11-13T08:49:34;12.90;87.90
28546;DHT22;15749;49.606;8.738;2022-11-13T08:52:22;13.00;87.70
28546;DHT22;15749;49.606;8.738;2022-11-13T08:55:09;13.10;87.60
28546;DHT22;15749;49.606;8.738;2022-11-13T08:57:57;13.20;87.50
28546;DHT22;15749;49.606;8.738;2022-11-13T09:00:46;13.30;87.80
28546;DHT22;15749;49.606;8.738;2022-11-13T09:03:35;13.40;87.70
28546;DHT22;15749;49.606;8.738;2022-11-13T09:06:22;13.50;87.70
28546;DHT22;15749;49.606;8.738;2022-11-13T09:09:10;13.60;88.00
28546;DHT22;15749;49.606;8.738;2022-11-13T09:11:58;13.70;88.10
28546;DHT22;15749;49.606;8.738;2022-11-13T09:14:45;13.80;88.10
28546;DHT22;15749;49.606;8.738;2022-11-13T09:17:32;13.90;88.10
28546;DHT22;15749;49.606;8.738;2022-11-13T09:20:21;14.00;88.20
28546;DHT22;15749;49.606;8.738;2022-11-13T09:23:09;14.20;88.50
28546;DHT22;15749;49.606;8.738;2022-11-13T09:25:56;14.30;88.50
28546;DHT22;15749;49.606;8.738;2022-11-13T09:28:47;14.40;88.60
28546;DHT22;15749;49.606;8.738;2022-11-13T09:31:35;14.60;88.70
28546;DHT22;15749;49.606;8.738;2022-11-13T09:34:24;14.70;88.70
28546;DHT22;15749;49.606;8.738;2022-11-13T09:37:15;14.80;88.40
28546;DHT22;15749;49.606;8.738;2022-11-13T09:40:03;14.90;88.50
28546;DHT22;15749;49.606;8.738;2022-11-13T09:42:51;15.10;88.70
28546;DHT22;15749;49.606;8.738;2022-11-13T09:45:39;15.20;89.00
28546;DHT22;15749;49.606;8.738;2022-11-13T09:48:32;15.40;89.10
28546;DHT22;15749;49.606;8.738;2022-11-13T09:51:24;15.50;89.40
28546;DHT22;15749;49.606;8.738;2022-11-13T09:54:15;15.70;89.90
28546;DHT22;15749;49.606;8.738;2022-11-13T09:57:15;16.00;90.20
28546;DHT22;15749;49.606;8.738;2022-11-13T10:00:14;16.20;90.00
28546;DHT22;15749;49.606;8.738;2022-11-13T10:03:17;16.50;90.50
28546;DHT22;15749;49.606;8.738;2022-11-13T10:06:40;16.80;90.20
28546;DHT22;15749;49.606;8.738;2022-11-13T10:09:38;17.10;90.60
28546;DHT22;15749;49.606;8.738;2022-11-13T10:12:31;17.30;90.60
28546;DHT22;15749;49.606;8.738;2022-11-13T10:15:20;17.80;90.90
28546;DHT22;15749;49.606;8.738;2022-11-13T10:18:11;18.10;90.90
28546;DHT22;15749;49.606;8.738;2022-11-13T10:21:08;18.40;90.00
28546;DHT22;15749;49.606;8.738;2022-11-13T10:24:04;18.80;90.10
28546;DHT22;15749;49.606;8.738;2022-11-13T10:27:04;19.10;89.30
28546;DHT22;15749;49.606;8.738;2022-11-13T10:29:55;19.40;88.70
28546;DHT22;15749;49.606;8.738;2022-11-13T10:32:43;19.70;88.60
28546;DHT22;15749;49.606;8.738;2022-11-13T10:35:43;19.90;87.90
28546;DHT22;15749;49.606;8.738;2022-11-13T10:38:39;20.20;86.20
28546;DHT22;15749;49.606;8.738;2022-11-13T10:41:29;20.50;85.60
28546;DHT22;15749;49.606;8.738;2022-11-13T10:44:24;20.70;85.50
28546;DHT22;15749;49.606;8.738;2022-11-13T10:47:14;20.90;83.60
28546;DHT22;15749;49.606;8.738;2022-11-13T10:50:25;21.20;84.00
28546;DHT22;15749;49.606;8.738;2022-11-13T10:53:16;21.40;84.00
28546;DHT22;15749;49.606;8.738;2022-11-13T10:56:19;21.60;84.10
28546;DHT22;15749;49.606;8.738;2022-11-13T10:59:10;21.80;81.00
28546;DHT22;15749;49.606;8.738;2022-11-13T11:02:15;22.00;82.20
28546;DHT22;15749;49.606;8.738;2022-11-13T11:05:06;22.30;78.70
28546;DHT22;15749;49.606;8.738;2022-11-13T11:08:07;22.50;81.50
28546;DHT22;15749;49.606;8.738;2022-11-13T11:10:58;22.70;79.10
28546;DHT22;15749;49.606;8.738;2022-11-13T11:14:10;22.80;79.40
28546;DHT22;15749;49.606;8.738;2022-11-13T11:17:04;23.00;78.20
28546;DHT22;15749;49.606;8.738;2022-11-13T11:19:57;23.10;79.80
28546;DHT22;15749;49.606;8.738;2022-11-13T11:22:51;23.30;77.50
28546;DHT22;15749;49.606;8.738;2022-11-13T11:25:42;23.40;77.90
28546;DHT22;15749;49.606;8.738;2022-11-13T11:28:36;23.60;77.40
28546;DHT22;15749;49.606;8.738;2022-11-13T11:31:30;23.70;75.70
28546;DHT22;15749;49.606;8.738;2022-11-13T11:34:24;23.90;74.70
28546;DHT22;15749;49.606;8.738;2022-11-13T11:37:19;24.10;75.10
28546;DHT22;15749;49.606;8.738;2022-11-13T11:40:15;24.20;75.20
28546;DHT22;15749;49.606;8.738;2022-11-13T11:43:13;24.30;73.70
28546;DHT22;15749;49.606;8.738;2022-11-13T11:46:04;24.40;72.40
28546;DHT22;15749;49.606;8.738;2022-11-13T11:48:51;24.50;72.70
28546;DHT22;15749;49.606;8.738;2022-11-13T11:51:47;24.50;71.80
28546;DHT22;15749;49.606;8.738;2022-11-13T11:54:45;24.40;69.60
28546;DHT22;15749;49.606;8.738;2022-11-13T11:57:46;24.40;69.70
28546;DHT22;15749;49.606;8.738;2022-11-13T12:00:40;24.40;68.80
28546;DHT22;15749;49.606;8.738;2022-11-13T12:03:53;24.30;69.10
28546;DHT22;15749;49.606;8.738;2022-11-13T12:06:56;24.30;67.80
28546;DHT22;15749;49.606;8.738;2022-11-13T12:10:08;24.40;68.30
28546;DHT22;15749;49.606;8.738;2022-11-13T12:13:17;24.40;68.70
28546;DHT22;15749;49.606;8.738;2022-11-13T12:16:12;24.50;68.30
28546;DHT22;15749;49.606;8.738;2022-11-13T12:19:15;24.60;68.20
28546;DHT22;15749;49.606;8.738;2022-11-13T12:22:15;24.70;68.80
28546;DHT22;15749;49.606;8.738;2022-11-13T12:25:13;24.80;67.00
28546;DHT22;15749;49.606;8.738;2022-11-13T12:28:16;24.80;67.00
28546;DHT22;15749;49.606;8.738;2022-11-13T12:31:13;24.70;65.60
28546;DHT22;15749;49.606;8.738;2022-11-13T12:34:15;24.70;65.50
28546;DHT22;15749;49.606;8.738;2022-11-13T12:37:15;24.50;63.80
28546;DHT22;15749;49.606;8.738;2022-11-13T12:40:14;24.30;63.60
28546;DHT22;15749;49.606;8.738;2022-11-13T12:43:27;24.10;64.20
28546;DHT22;15749;49.606;8.738;2022-11-13T12:46:20;23.90;63.20
28546;DHT22;15749;49.606;8.738;2022-11-13T12:49:25;23.70;64.30
28546;DHT22;15749;49.606;8.738;2022-11-13T12:52:18;23.50;63.50
28546;DHT22;15749;49.606;8.738;2022-11-13T12:55:25;23.30;63.60
28546;DHT22;15749;49.606;8.738;2022-11-13T12:58:19;23.10;63.60
28546;DHT22;15749;49.606;8.738;2022-11-13T13:01:16;23.00;63.80
28546;DHT22;15749;49.606;8.738;2022-11-13T13:04:27;22.80;62.90
28546;DHT22;15749;49.606;8.738;2022-11-13T13:07:40;22.60;64.30
28546;DHT22;15749;49.606;8.738;2022-11-13T13:10:49;22.40;64.20
28546;DHT22;15749;49.606;8.738;2022-11-13T13:13:49;22.20;64.20
28546;DHT22;15749;49.606;8.738;2022-11-13T13:16:39;22.10;64.90
28546;DHT22;15749;49.606;8.738;2022-11-13T13:19:28;21.90;65.10
28546;DHT22;15749;49.606;8.738;2022-11-13T13:22:25;21.80;65.50
28546;DHT22;15749;49.606;8.738;2022-11-13T13:25:23;21.70;64.70
28546;DHT22;15749;49.606;8.738;2022-11-13T13:28:19;21.50;64.80
28546;DHT22;15749;49.606;8.738;2022-11-13T13:31:19;21.40;64.70
28546;DHT22;15749;49.606;8.738;2022-11-13T13:34:33;21.30;65.50
28546;DHT22;15749;49.606;8.738;2022-11-13T13:37:30;21.20;65.80
28546;DHT22;15749;49.606;8.738;2022-11-13T13:40:30;21.10;64.80
28546;DHT22;15749;49.606;8.738;2022-11-13T13:43:34;21.00;65.20
28546;DHT22;15749;49.606;8.738;2022-11-13T13:46:30;20.90;65.80
28546;DHT22;15749;49.606;8.738;2022-11-13T13:49:20;20.80;66.00
28546;DHT22;15749;49.606;8.738;2022-11-13T13:52:11;20.70;66.50
28546;DHT22;15749;49.606;8.738;2022-11-13T13:55:01;20.60;66.50
28546;DHT22;15749;49.606;8.738;2022-11-13T13:57:50;20.50;66.40
28546;DHT22;15749;49.606;8.738;2022-11-13T14:00:39;20.40;66.10
28546;DHT22;15749;49.606;8.738;2022-11-13T14:03:47;20.30;66.00
28546;DHT22;15749;49.606;8.738;2022-11-13T14:06:34;20.20;66.20
28546;DHT22;15749;49.606;8.738;2022-11-13T14:09:24;20.10;66.20
28546;DHT22;15749;49.606;8.738;2022-11-13T14:12:17;20.10;66.40
28546;DHT22;15749;49.606;8.738;2022-11-13T14:15:21;20.00;66.20
28546;DHT22;15749;49.606;8.738;2022-11-13T14:18:15;19.90;66.40
28546;DHT22;15749;49.606;8.738;2022-11-13T14:21:10;19.80;66.20
28546;DHT22;15749;49.606;8.738;2022-11-13T14:24:01;19.70;65.90
28546;DHT22;15749;49.606;8.738;2022-11-13T14:26:51;19.70;66.60
28546;DHT22;15749;49.606;8.738;2022-11-13T14:29:45;19.60;66.60
28546;DHT22;15749;49.606;8.738;2022-11-13T14:32:38;19.60;67.00
28546;DHT22;15749;49.606;8.738;2022-11-13T14:35:33;19.50;66.70
28546;DHT22;15749;49.606;8.738;2022-11-13T14:38:25;19.40;66.90
28546;DHT22;15749;49.606;8.738;2022-11-13T14:41:20;19.40;66.80
28546;DHT22;15749;49.606;8.738;2022-11-13T14:44:10;19.30;66.70
28546;DHT22;15749;49.606;8.738;2022-11-13T14:47:00;19.30;66.90
28546;DHT22;15749;49.606;8.738;2022-11-13T14:49:48;19.20;66.80
28546;DHT22;15749;49.606;8.738;2022-11-13T14:52:37;19.20;66.60
28546;DHT22;15749;49.606;8.738;2022-11-13T14:55:27;19.10;66.70
28546;DHT22;15749;49.606;8.738;2022-11-13T14:58:25;19.10;66.80
28546;DHT22;15749;49.606;8.738;2022-11-13T15:01:15;19.00;66.30
28546;DHT22;15749;49.606;8.738;2022-11-13T15:04:03;19.00;66.80
28546;DHT22;15749;49.606;8.738;2022-11-13T15:06:51;18.90;66.40
28546;DHT22;15749;49.606;8.738;2022-11-13T15:09:42;18.80;66.60
28546;DHT22;15749;49.606;8.738;2022-11-13T15:12:30;18.80;66.40
28546;DHT22;15749;49.606;8.738;2022-11-13T15:15:20;18.70;66.50
28546;DHT22;15749;49.606;8.738;2022-11-13T15:18:16;18.70;66.40
28546;DHT22;15749;49.606;8.738;2022-11-13T15:21:04;18.60;66.50
28546;DHT22;15749;49.606;8.738;2022-11-13T15:23:52;18.60;66.50
28546;DHT22;15749;49.606;8.738;2022-11-13T15:26:41;18.50;66.70
28546;DHT22;15749;49.606;8.738;2022-11-13T15:29:29;18.50;66.90
28546;DHT22;15749;49.606;8.738;2022-11-13T15:32:16;18.40;67.00
28546;DHT22;15749;49.606;8.738;2022-11-13T15:35:05;18.40;66.80
28546;DHT22;15749;49.606;8.738;2022-11-13T15:37:55;18.30;67.00
28546;DHT22;15749;49.606;8.738;2022-11-13T15:40:43;18.30;67.00
28546;DHT22;15749;49.606;8.738;2022-11-13T15:43:31;18.30;66.90
28546;DHT22;15749;49.606;8.738;2022-11-13T15:46:21;18.20;66.40
28546;DHT22;15749;49.606;8.738;2022-11-13T15:49:09;18.20;66.80
28546;DHT22;15749;49.606;8.738;2022-11-13T15:51:57;18.20;66.10
28546;DHT22;15749;49.606;8.738;2022-11-13T15:54:45;18.10;66.20
28546;DHT22;15749;49.606;8.738;2022-11-13T15:57:32;18.00;66.20
28546;DHT22;15749;49.606;8.738;2022-11-13T16:00:23;18.00;66.40
28546;DHT22;15749;49.606;8.738;2022-11-13T16:03:11;18.00;66.40
28546;DHT22;15749;49.606;8.738;2022-11-13T16:05:59;17.90;66.70
28546;DHT22;15749;49.606;8.738;2022-11-13T16:08:47;17.90;66.80
28546;DHT22;15749;49.606;8.738;2022-11-13T16:11:35;17.80;66.30
28546;DHT22;15749;49.606;8.738;2022-11-13T16:14:22;17.80;66.70
28546;DHT22;15749;49.606;8.738;2022-11-13T16:17:13;17.80;66.90
28546;DHT22;15749;49.606;8.738;2022-11-13T16:20:07;17.70;67.10
28546;DHT22;15749;49.606;8.738;2022-11-13T16:22:57;17.60;67.10
28546;DHT22;15749;49.606;8.738;2022-11-13T16:25:47;17.60;66.70
28546;DHT22;15749;49.606;8.738;2022-11-13T16:28:35;17.60;66.40
28546;DHT22;15749;49.606;8.738;2022-11-13T16:31:42;17.60;67.10
28546;DHT22;15749;49.606;8.738;2022-11-13T16:34:31;17.50;67.50
28546;DHT22;15749;49.606;8.738;2022-11-13T16:37:21;17.50;67.40
28546;DHT22;15749;49.606;8.738;2022-11-13T16:40:17;17.50;67.00
28546;DHT22;15749;49.606;8.738;2022-11-13T16:43:07;17.40;66.00
28546;DHT22;15749;49.606;8.738;2022-11-13T16:45:55;17.40;66.80
28546;DHT22;15749;49.606;8.738;2022-11-13T16:48:46;17.30;66.20
28546;DHT22;15749;49.606;8.738;2022-11-13T16:51:35;17.30;65.90
28546;DHT22;15749;49.606;8.738;2022-11-13T16:54:22;17.20;66.30
28546;DHT22;15749;49.606;8.738;2022-11-13T16:57:10;17.10;66.40
28546;DHT22;15749;49.606;8.738;2022-11-13T16:59:58;17.10;66.30
28546;DHT22;15749;49.606;8.738;2022-11-13T17:02:48;17.10;66.60
28546;DHT22;15749;49.606;8.738;2022-11-13T17:05:37;17.00;67.20
28546;DHT22;15749;49.606;8.738;2022-11-13T17:08:26;17.00;67.30
28546;DHT22;15749;49.606;8.738;2022-11-13T17:11:14;17.00;67.50
28546;DHT22;15749;49.606;8.738;2022-11-13T17:14:02;16.90;67.50
28546;DHT22;15749;49.606;8.738;2022-11-13T17:16:49;16.90;67.80
28546;DHT22;15749;49.606;8.738;2022-11-13T17:19:37;16.90;67.10
28546;DHT22;15749;49.606;8.738;2022-11-13T17:22:29;16.80;67.00
28546;DHT22;15749;49.606;8.738;2022-11-13T17:25:18;16.80;67.40
28546;DHT22;15749;49.606;8.738;2022-11-13T17:28:05;16.70;67.20
28546;DHT22;15749;49.606;8.738;2022-11-13T17:30:53;16.70;67.40
28546;DHT22;15749;49.606;8.738;2022-11-13T17:33:44;16.70;67.80
28546;DHT22;15749;49.606;8.738;2022-11-13T17:36:32;16.60;67.80
28546;DHT22;15749;49.606;8.738;2022-11-13T17:39:20;16.60;67.50
28546;DHT22;15749;49.606;8.738;2022-11-13T17:42:09;16.50;67.30
28546;DHT22;15749;49.606;8.738;2022-11-13T17:44:57;16.50;67.40
28546;DHT22;15749;49.606;8.738;2022-11-13T17:47:44;16.40;67.70
28546;DHT22;15749;49.606;8.738;2022-11-13T17:50:32;16.40;67.70
28546;DHT22;15749;49.606;8.738;2022-11-13T17:53:19;16.40;67.60
28546;DHT22;15749;49.606;8.738;2022-11-13T17:56:10;16.30;67.50
28546;DHT22;15749;49.606;8.738;2022-11-13T17:59:00;16.30;67.60
28546;DHT22;15749;49.606;8.738;2022-11-13T18:01:47;16.30;67.60
28546;DHT22;15749;49.606;8.738;2022-11-13T18:04:35;16.20;67.70
28546;DHT22;15749;49.606;8.738;2022-11-13T18:07:23;16.20;67.50
28546;DHT22;15749;49.606;8.738;2022-11-13T18:10:11;16.20;67.70
28546;DHT22;15749;49.606;8.738;2022-11-13T18:12:58;16.10;68.00
28546;DHT22;15749;49.606;8.738;2022-11-13T18:15:47;16.10;68.00
28546;DHT22;15749;49.606;8.738;2022-11-13T18:18:35;16.10;68.00
28546;DHT22;15749;49.606;8.738;2022-11-13T18:21:25;16.00;67.80
28546;DHT22;15749;49.606;8.738;2022-11-13T18:24:16;16.00;68.50
28546;DHT22;15749;49.606;8.738;2022-11-13T18:27:05;16.00;68.00
28546;DHT22;15749;49.606;8.738;2022-11-13T18:29:53;15.90;68.50
28546;DHT22;15749;49.606;8.738;2022-11-13T18:32:41;15.90;68.30
28546;DHT22;15749;49.606;8.738;2022-11-13T18:35:29;15.80;68.00
28546;DHT22;15749;49.606;8.738;2022-11-13T18:38:17;15.80;68.00
28546;DHT22;15749;49.606;8.738;2022-11-13T18:41:06;15.70;68.20